createdAt,value
2023-07-21T00:00:22.669Z,99774.19
2023-07-21T00:01:17.464Z,99773.22
2023-07-21T00:02:08.334Z,99775.66
2023-07-21T00:02:59.605Z,99777.66
2023-07-21T00:03:50.605Z,99773.31
2023-07-21T00:04:41.318Z,99775.97
2023-07-21T00:05:32.461Z,99774.19
2023-07-21T00:06:25.972Z,99773.31
2023-07-21T00:07:16.857Z,99775.34
2023-07-21T00:08:09.863Z,99777.50
2023-07-21T00:09:00.328Z,99771.53
2023-07-21T00:09:51.142Z,99774.69
2023-07-21T00:10:43.777Z,99774.84
2023-07-21T00:11:34.408Z,99768.88
2023-07-21T00:12:25.391Z,99777.56
2023-07-21T00:13:16.236Z,99770.63
2023-07-21T00:14:07.167Z,99769.59
2023-07-21T00:14:57.988Z,99771.31
2023-07-21T00:15:50.334Z,99777.56
2023-07-21T00:16:41.169Z,99774.94
2023-07-21T00:17:33.429Z,99778.56
2023-07-21T00:18:25.001Z,99774.63
2023-07-21T00:19:15.816Z,99771.25
2023-07-21T00:20:21.254Z,99769.25
2023-07-21T00:21:13.227Z,99775.59
2023-07-21T00:22:03.992Z,99769.72
2023-07-21T00:22:55.032Z,99771.34
2023-07-21T00:23:47.730Z,99768.75
2023-07-21T00:24:38.322Z,99771.50
2023-07-21T00:25:29.072Z,99772.16
2023-07-21T00:26:20.317Z,99771.50
2023-07-21T00:27:12.586Z,99770.72
2023-07-21T00:28:03.470Z,99768.09
2023-07-21T00:28:58.161Z,99766.72
2023-07-21T00:29:51.118Z,99766.09
2023-07-21T00:30:42.365Z,99766.72
2023-07-21T00:31:33.543Z,99771.34
2023-07-21T00:32:24.525Z,99767.69
2023-07-21T00:33:16.308Z,99759.72
2023-07-21T00:34:09.935Z,99767.03
2023-07-21T00:35:02.876Z,99762.94
2023-07-21T00:35:53.658Z,99761.97
2023-07-21T00:36:47.230Z,99767.72
2023-07-21T00:37:39.297Z,99770.22
2023-07-21T00:38:30.356Z,99759.38
2023-07-21T00:39:21.165Z,99764.56
2023-07-21T00:40:17.177Z,99762.25
2023-07-21T00:41:08.537Z,99757.78
2023-07-21T00:41:59.570Z,99764.09
2023-07-21T00:42:50.604Z,99756.66
2023-07-21T00:43:41.423Z,99759.16
2023-07-21T00:44:32.164Z,99757.47
2023-07-21T00:45:23.243Z,99757.81
2023-07-21T00:46:14.410Z,99760.13
2023-07-21T00:47:06.082Z,99752.47
2023-07-21T00:47:57.613Z,99758.34
2023-07-21T00:48:48.886Z,99754.84
2023-07-21T00:49:43.077Z,99757.03
2023-07-21T00:50:33.751Z,99752.53
2023-07-21T00:51:24.418Z,99757.00
2023-07-21T00:52:18.721Z,99747.22
2023-07-21T00:53:14.708Z,99749.50
2023-07-21T00:54:06.418Z,99753.38
2023-07-21T00:54:57.511Z,99752.22
2023-07-21T00:55:49.924Z,99749.56
2023-07-21T00:56:43.574Z,99753.38
2023-07-21T00:57:36.668Z,99747.09
2023-07-21T00:58:27.639Z,99748.22
2023-07-21T00:59:18.444Z,99744.88
2023-07-21T01:00:13.588Z,99748.38
2023-07-21T01:01:05.611Z,99750.22
2023-07-21T01:01:57.619Z,99747.41
2023-07-21T01:02:50.968Z,99743.31
2023-07-21T01:03:42.588Z,99751.28
2023-07-21T01:04:35.142Z,99746.97
2023-07-21T01:05:26.680Z,99744.34
2023-07-21T01:06:17.915Z,99735.88
2023-07-21T01:07:10.649Z,99741.47
2023-07-21T01:08:08.983Z,99736.69
2023-07-21T01:09:03.338Z,99736.69
2023-07-21T01:09:54.249Z,99733.84
2023-07-21T01:10:48.957Z,99738.63
2023-07-21T01:11:40.415Z,99727.69
2023-07-21T01:12:31.869Z,99730.06
2023-07-21T01:13:23.291Z,99727.25
2023-07-21T01:14:14.131Z,99728.03
2023-07-21T01:15:05.746Z,99725.06
2023-07-21T01:15:57.825Z,99720.72
2023-07-21T01:16:50.034Z,99726.72
2023-07-21T01:17:42.054Z,99727.06
2023-07-21T01:18:34.477Z,99726.34
2023-07-21T01:19:26.412Z,99725.19
2023-07-21T01:20:23.593Z,99722.72
2023-07-21T01:21:21.657Z,99718.72
2023-07-21T01:22:35.341Z,99721.59
2023-07-21T01:23:38.588Z,99712.50
2023-07-21T01:25:10.595Z,99715.63
2023-07-21T01:26:01.999Z,99709.81
2023-07-21T01:26:55.896Z,99710.84
2023-07-21T01:27:49.643Z,99703.56
2023-07-21T01:28:44.650Z,99710.38
2023-07-21T01:29:36.985Z,99703.00
2023-07-21T01:30:30.335Z,99704.94
2023-07-21T01:31:22.576Z,99699.31
2023-07-21T01:32:16.511Z,99693.66
2023-07-21T01:33:09.142Z,99698.59
2023-07-21T01:34:00.549Z,99697.28
2023-07-21T01:34:53.051Z,99700.91
2023-07-21T01:35:45.129Z,99689.94
2023-07-21T01:36:37.812Z,99696.25
2023-07-21T01:37:29.274Z,99693.09
2023-07-21T01:38:21.875Z,99694.06
2023-07-21T01:39:13.753Z,99695.41
2023-07-21T01:40:10.648Z,99685.00
2023-07-21T01:41:03.139Z,99684.84
2023-07-21T01:41:56.679Z,99684.03
2023-07-21T01:42:51.085Z,99685.50
2023-07-21T01:43:42.195Z,99685.66
2023-07-21T01:44:34.007Z,99683.66
2023-07-21T01:45:25.225Z,99686.34
2023-07-21T01:46:17.037Z,99682.34
2023-07-21T01:47:08.210Z,99678.00
2023-07-21T01:47:59.460Z,99677.53
2023-07-21T01:48:50.187Z,99681.53
2023-07-21T01:49:41.118Z,99676.69
2023-07-21T01:50:32.954Z,99680.53
2023-07-21T01:51:25.883Z,99680.41
2023-07-21T01:52:18.163Z,99682.03
2023-07-21T01:53:15.026Z,99676.75
2023-07-21T01:54:12.922Z,99677.34
2023-07-21T01:55:34.190Z,99681.03
2023-07-21T01:56:33.135Z,99673.44
2023-07-21T01:57:31.469Z,99671.47
2023-07-21T01:58:22.963Z,99672.16
2023-07-21T01:59:15.747Z,99665.56
2023-07-21T02:00:14.362Z,99665.22
2023-07-21T02:01:12.757Z,99672.81
2023-07-21T02:02:04.129Z,99657.94
2023-07-21T02:02:56.659Z,99660.25
2023-07-21T02:03:48.871Z,99661.72
2023-07-21T02:04:39.968Z,99655.00
2023-07-21T02:05:30.767Z,99659.31
2023-07-21T02:06:21.374Z,99657.97
2023-07-21T02:07:12.612Z,99654.66
2023-07-21T02:08:03.659Z,99659.97
2023-07-21T02:08:54.233Z,99657.13
2023-07-21T02:09:45.062Z,99662.75
2023-07-21T02:10:37.324Z,99656.34
2023-07-21T02:11:37.425Z,99656.34
2023-07-21T02:12:51.153Z,99661.97
2023-07-21T02:13:42.112Z,99654.47
2023-07-21T02:14:32.810Z,99656.34
2023-07-21T02:15:23.820Z,99660.47
2023-07-21T02:16:15.475Z,99652.19
2023-07-21T02:17:07.095Z,99661.81
2023-07-21T02:17:59.590Z,99662.47
2023-07-21T02:18:50.427Z,99664.09
2023-07-21T02:19:41.271Z,99657.28
2023-07-21T02:20:33.096Z,99660.75
2023-07-21T02:21:23.842Z,99656.19
2023-07-21T02:22:14.996Z,99661.97
2023-07-21T02:23:06.314Z,99661.63
2023-07-21T02:23:57.054Z,99665.63
2023-07-21T02:24:47.919Z,99667.56
2023-07-21T02:25:38.871Z,99664.25
2023-07-21T02:26:30.330Z,99663.94
2023-07-21T02:27:23.392Z,99658.50
2023-07-21T02:28:14.079Z,99668.25
2023-07-21T02:29:05.074Z,99661.66
2023-07-21T02:29:56.978Z,99665.09
2023-07-21T02:30:58.216Z,99665.94
2023-07-21T02:31:50.721Z,99662.94
2023-07-21T02:32:41.655Z,99664.56
2023-07-21T02:33:32.934Z,99672.88
2023-07-21T02:34:23.702Z,99669.75
2023-07-21T02:35:14.765Z,99669.91
2023-07-21T02:36:07.964Z,99666.25
2023-07-21T02:37:00.250Z,99668.03
2023-07-21T02:37:51.069Z,99673.38
2023-07-21T02:38:43.964Z,99670.69
2023-07-21T02:39:35.043Z,99676.66
2023-07-21T02:40:26.055Z,99668.59
2023-07-21T02:41:17.066Z,99667.94
2023-07-21T02:42:08.385Z,99673.88
2023-07-21T02:42:59.720Z,99670.91
2023-07-21T02:43:50.472Z,99669.94
2023-07-21T02:44:42.099Z,99673.91
2023-07-21T02:45:32.935Z,99670.91
2023-07-21T02:46:24.488Z,99666.94
2023-07-21T02:47:19.865Z,99663.81
2023-07-21T02:48:11.221Z,99666.31
2023-07-21T02:49:02.453Z,99664.81
2023-07-21T02:49:53.433Z,99670.25
2023-07-21T02:50:56.736Z,99671.94
2023-07-21T02:51:48.105Z,99671.59
2023-07-21T02:52:40.224Z,99676.22
2023-07-21T02:53:30.844Z,99677.59
2023-07-21T02:54:24.998Z,99676.41
2023-07-21T02:55:18.469Z,99669.78
2023-07-21T02:56:10.310Z,99674.25
2023-07-21T02:57:36.521Z,99670.75
2023-07-21T02:58:28.841Z,99674.94
2023-07-21T02:59:22.195Z,99672.59
2023-07-21T03:00:14.047Z,99671.75
2023-07-21T03:01:16.612Z,99675.06
2023-07-21T03:02:07.509Z,99673.44
2023-07-21T03:03:10.476Z,99675.91
2023-07-21T03:04:04.093Z,99679.88
2023-07-21T03:05:00.956Z,99676.53
2023-07-21T03:05:53.128Z,99673.03
2023-07-21T03:06:47.621Z,99671.56
2023-07-21T03:07:40.370Z,99669.94
2023-07-21T03:08:31.598Z,99668.25
2023-07-21T03:09:30.553Z,99671.91
2023-07-21T03:10:21.636Z,99670.63
2023-07-21T03:11:14.536Z,99667.47
2023-07-21T03:12:31.772Z,99673.94
2023-07-21T03:13:37.932Z,99668.94
2023-07-21T03:14:28.777Z,99666.66
2023-07-21T03:15:19.561Z,99670.47
2023-07-21T03:16:19.957Z,99667.63
2023-07-21T03:17:17.001Z,99672.59
2023-07-21T03:18:08.084Z,99672.75
2023-07-21T03:19:13.171Z,99675.56
2023-07-21T03:20:13.225Z,99667.97
2023-07-21T03:21:04.417Z,99670.59
2023-07-21T03:21:55.742Z,99671.91
2023-07-21T03:22:47.063Z,99671.88
2023-07-21T03:23:38.667Z,99672.06
2023-07-21T03:24:29.753Z,99667.47
2023-07-21T03:25:21.173Z,99666.97
2023-07-21T03:26:12.393Z,99670.94
2023-07-21T03:27:07.354Z,99672.75
2023-07-21T03:28:01.194Z,99668.94
2023-07-21T03:28:53.810Z,99669.28
2023-07-21T03:29:52.476Z,99667.97
2023-07-21T03:30:44.689Z,99672.28
2023-07-21T03:31:43.569Z,99666.31
2023-07-21T03:32:38.254Z,99667.81
2023-07-21T03:33:29.699Z,99668.28
2023-07-21T03:34:32.395Z,99666.31
2023-07-21T03:35:23.266Z,99662.84
2023-07-21T03:36:17.675Z,99663.34
2023-07-21T03:37:09.696Z,99660.03
2023-07-21T03:38:03.224Z,99660.84
2023-07-21T03:38:54.302Z,99657.03
2023-07-21T03:39:46.062Z,99661.47
2023-07-21T03:40:37.528Z,99653.03
2023-07-21T03:41:29.942Z,99657.34
2023-07-21T03:42:20.842Z,99663.66
2023-07-21T03:43:11.364Z,99657.88
2023-07-21T03:44:02.221Z,99654.56
2023-07-21T03:44:53.183Z,99656.88
2023-07-21T03:45:43.636Z,99650.09
2023-07-21T03:46:34.433Z,99655.53
2023-07-21T03:47:36.064Z,99654.53
2023-07-21T03:48:29.357Z,99649.19
2023-07-21T03:49:21.186Z,99648.00
2023-07-21T03:50:18.295Z,99645.69
2023-07-21T03:51:09.081Z,99649.50
2023-07-21T03:52:06.800Z,99656.91
2023-07-21T03:52:58.650Z,99648.44
2023-07-21T03:53:49.877Z,99647.94
2023-07-21T03:54:43.794Z,99649.16
2023-07-21T03:55:34.921Z,99638.13
2023-07-21T03:56:28.494Z,99638.69
2023-07-21T03:57:21.048Z,99642.63
2023-07-21T03:58:11.659Z,99635.69
2023-07-21T03:59:02.679Z,99640.75
2023-07-21T03:59:54.137Z,99639.63
2023-07-21T04:00:45.251Z,99637.16
2023-07-21T04:01:35.779Z,99641.59
2023-07-21T04:02:27.020Z,99638.44
2023-07-21T04:03:19.793Z,99632.94
2023-07-21T04:04:10.860Z,99637.00
2023-07-21T04:05:01.698Z,99636.72
2023-07-21T04:05:53.334Z,99631.13
2023-07-21T04:06:45.186Z,99629.03
2023-07-21T04:07:35.973Z,99628.81
2023-07-21T04:08:26.517Z,99632.50
2023-07-21T04:09:17.663Z,99616.00
2023-07-21T04:10:09.012Z,99622.31
2023-07-21T04:10:59.608Z,99625.81
2023-07-21T04:11:50.804Z,99622.69
2023-07-21T04:12:41.437Z,99626.19
2023-07-21T04:13:32.201Z,99632.16
2023-07-21T04:14:23.048Z,99622.50
2023-07-21T04:15:15.723Z,99623.56
2023-07-21T04:16:08.262Z,99623.13
2023-07-21T04:16:59.078Z,99628.63
2023-07-21T04:17:49.829Z,99621.25
2023-07-21T04:18:40.775Z,99625.09
2023-07-21T04:19:32.394Z,99628.84
2023-07-21T04:20:25.876Z,99619.63
2023-07-21T04:21:16.581Z,99620.22
2023-07-21T04:22:08.504Z,99615.50
2023-07-21T04:23:01.060Z,99616.09
2023-07-21T04:23:52.807Z,99610.88
2023-07-21T04:24:44.180Z,99622.66
2023-07-21T04:25:35.750Z,99614.91
2023-07-21T04:26:27.685Z,99612.06
2023-07-21T04:27:18.467Z,99606.66
2023-07-21T04:28:09.250Z,99613.59
2023-07-21T04:29:03.008Z,99610.28
2023-07-21T04:29:56.291Z,99614.31
2023-07-21T04:30:48.497Z,99618.53
2023-07-21T04:31:40.308Z,99614.25
2023-07-21T04:32:39.619Z,99614.78
2023-07-21T04:33:33.093Z,99606.38
2023-07-21T04:34:25.522Z,99615.22
2023-07-21T04:35:17.641Z,99614.84
2023-07-21T04:36:10.050Z,99613.13
2023-07-21T04:37:01.326Z,99611.94
2023-07-21T04:37:58.379Z,99609.47
2023-07-21T04:38:53.132Z,99612.56
2023-07-21T04:39:45.110Z,99605.50
2023-07-21T04:40:35.947Z,99608.16
2023-07-21T04:41:28.313Z,99609.63
2023-07-21T04:42:19.552Z,99607.34
2023-07-21T04:43:10.491Z,99606.41
2023-07-21T04:44:01.534Z,99615.22
2023-07-21T04:44:52.444Z,99603.72
2023-07-21T04:45:44.164Z,99606.59
2023-07-21T04:46:42.865Z,99605.81
2023-07-21T04:47:33.674Z,99613.78
2023-07-21T04:48:28.544Z,99606.84
2023-07-21T04:49:19.786Z,99605.47
2023-07-21T04:50:12.290Z,99605.38
2023-07-21T04:51:05.374Z,99599.88
2023-07-21T04:51:59.532Z,99607.19
2023-07-21T04:52:50.356Z,99607.84
2023-07-21T04:53:43.461Z,99611.50
2023-07-21T04:54:35.530Z,99602.25
2023-07-21T04:55:27.958Z,99602.78
2023-07-21T04:56:21.879Z,99606.38
2023-07-21T04:57:18.976Z,99608.53
2023-07-21T04:58:09.649Z,99603.44
2023-07-21T04:59:00.566Z,99606.53
2023-07-21T04:59:51.401Z,99606.38
2023-07-21T05:00:42.291Z,99600.78
2023-07-21T05:01:35.296Z,99610.22
2023-07-21T05:02:29.284Z,99607.06
2023-07-21T05:03:21.655Z,99605.00
2023-07-21T05:04:12.912Z,99604.91
2023-07-21T05:05:05.625Z,99598.75
2023-07-21T05:06:00.389Z,99599.44
2023-07-21T05:06:51.692Z,99604.28
2023-07-21T05:07:42.287Z,99606.16
2023-07-21T05:08:33.149Z,99603.28
2023-07-21T05:09:26.099Z,99602.09
2023-07-21T05:10:18.010Z,99598.13
2023-07-21T05:11:10.984Z,99601.69
2023-07-21T05:12:02.956Z,99601.34
2023-07-21T05:13:07.356Z,99597.16
2023-07-21T05:14:19.704Z,99604.19
2023-07-21T05:15:25.893Z,99602.72
2023-07-21T05:16:25.292Z,99592.25
2023-07-21T05:17:39.626Z,99595.69
2023-07-21T05:18:51.485Z,99602.25
2023-07-21T05:20:09.063Z,99594.38
2023-07-21T05:21:23.240Z,99600.25
2023-07-21T05:22:21.149Z,99594.50
2023-07-21T05:23:27.401Z,99595.84
2023-07-21T05:24:34.383Z,99594.63
2023-07-21T05:25:28.008Z,99591.44
2023-07-21T05:26:19.175Z,99592.91
2023-07-21T05:27:10.221Z,99591.56
2023-07-21T05:28:16.244Z,99596.25
2023-07-21T05:29:10.251Z,99592.59
2023-07-21T05:30:07.408Z,99593.72
2023-07-21T05:31:02.091Z,99589.47
2023-07-21T05:32:06.779Z,99593.13
2023-07-21T05:32:58.661Z,99590.47
2023-07-21T05:33:51.653Z,99592.59
2023-07-21T05:34:43.624Z,99594.78
2023-07-21T05:35:34.808Z,99590.91
2023-07-21T05:36:35.960Z,99598.69
2023-07-21T05:37:26.652Z,99599.59
2023-07-21T05:38:17.995Z,99600.34
2023-07-21T05:39:08.689Z,99604.41
2023-07-21T05:39:59.773Z,99598.63
2023-07-21T05:41:00.561Z,99592.50
2023-07-21T05:41:58.872Z,99597.09
2023-07-21T05:42:52.886Z,99598.78
2023-07-21T05:43:44.302Z,99604.06
2023-07-21T05:44:35.749Z,99609.13
2023-07-21T05:45:26.974Z,99615.53
2023-07-21T05:46:18.747Z,99625.56
2023-07-21T05:47:20.478Z,99622.91
2023-07-21T05:48:16.152Z,99611.06
2023-07-21T05:49:11.097Z,99615.53
2023-07-21T05:50:04.037Z,99614.66
2023-07-21T05:50:58.955Z,99615.53
2023-07-21T05:51:50.278Z,99606.66
2023-07-21T05:52:56.243Z,99610.84
2023-07-21T05:53:50.631Z,99610.00
2023-07-21T05:54:45.342Z,99614.25
2023-07-21T05:55:36.780Z,99614.56
2023-07-21T05:56:27.834Z,99618.19
2023-07-21T05:57:30.675Z,99620.69
2023-07-21T05:58:24.013Z,99619.13
2023-07-21T05:59:15.030Z,99622.28
2023-07-21T06:00:06.706Z,99624.34
2023-07-21T06:01:04.788Z,99618.56
2023-07-21T06:01:59.666Z,99623.94
2023-07-21T06:02:53.350Z,99633.91
2023-07-21T06:03:44.303Z,99627.78
2023-07-21T06:04:34.957Z,99619.28
2023-07-21T06:05:41.001Z,99622.22
2023-07-21T06:06:32.306Z,99623.16
2023-07-21T06:08:01.110Z,99627.53
2023-07-21T06:09:10.823Z,99628.47
2023-07-21T06:10:14.624Z,99619.78
2023-07-21T06:11:21.040Z,99627.38
2023-07-21T06:12:19.083Z,99624.84
2023-07-21T06:13:36.164Z,99625.41
2023-07-21T06:14:50.283Z,99624.22
2023-07-21T06:15:52.731Z,99624.50
2023-07-21T06:16:53.159Z,99636.34
2023-07-21T06:17:43.979Z,99634.34
2023-07-21T06:18:36.758Z,99633.69
2023-07-21T06:19:28.092Z,99628.09
2023-07-21T06:20:23.674Z,99631.75
2023-07-21T06:21:14.456Z,99628.28
2023-07-21T06:22:08.736Z,99624.25
2023-07-21T06:23:02.150Z,99628.19
2023-07-21T06:23:54.755Z,99622.50
2023-07-21T06:24:46.882Z,99624.88
2023-07-21T06:25:37.777Z,99626.00
2023-07-21T06:26:33.794Z,99625.63
2023-07-21T06:27:28.765Z,99621.69
2023-07-21T06:28:19.787Z,99622.88
2023-07-21T06:29:10.724Z,99616.38
2023-07-21T06:30:01.529Z,99621.19
2023-07-21T06:30:59.438Z,99610.56
2023-07-21T06:32:12.180Z,99616.00
2023-07-21T06:33:32.568Z,99617.72
2023-07-21T06:34:43.657Z,99618.50
2023-07-21T06:35:51.476Z,99616.28
2023-07-21T06:37:11.863Z,99614.72
2023-07-21T06:38:25.774Z,99607.09
2023-07-21T06:39:37.130Z,99613.72
2023-07-21T06:40:32.096Z,99610.69
2023-07-21T06:41:54.665Z,99614.34
2023-07-21T06:43:04.083Z,99604.63
2023-07-21T06:43:54.768Z,99603.34
2023-07-21T06:44:57.931Z,99606.94
2023-07-21T06:45:59.656Z,99613.41
2023-07-21T06:47:09.324Z,99613.34
2023-07-21T06:48:25.948Z,99614.25
2023-07-21T06:49:28.948Z,99620.47
2023-07-21T06:50:25.325Z,99614.06
2023-07-21T06:51:17.962Z,99617.00
2023-07-21T06:52:10.128Z,99606.53
2023-07-21T06:53:00.720Z,99613.06
2023-07-21T06:53:52.351Z,99607.28
2023-07-21T06:54:42.950Z,99608.75
2023-07-21T06:55:34.608Z,99604.09
2023-07-21T06:56:25.161Z,99611.06
2023-07-21T06:57:16.007Z,99606.44
2023-07-21T06:58:06.965Z,99602.69
2023-07-21T06:58:57.787Z,99596.31
2023-07-21T06:59:48.670Z,99599.69
2023-07-21T07:00:41.741Z,99602.22
2023-07-21T07:01:32.923Z,99605.56
2023-07-21T07:02:23.687Z,99609.19
2023-07-21T07:03:14.671Z,99609.81
2023-07-21T07:04:06.768Z,99607.84
2023-07-21T07:04:57.669Z,99616.53
2023-07-21T07:05:50.157Z,99616.19
2023-07-21T07:06:42.181Z,99613.63
2023-07-21T07:07:32.572Z,99613.25
2023-07-21T07:08:23.530Z,99613.56
2023-07-21T07:09:15.639Z,99605.53
2023-07-21T07:10:07.398Z,99613.13
2023-07-21T07:10:58.177Z,99614.66
2023-07-21T07:11:49.485Z,99616.41
2023-07-21T07:12:40.295Z,99619.09
2023-07-21T07:13:31.220Z,99610.22
2023-07-21T07:14:22.221Z,99614.09
2023-07-21T07:15:12.878Z,99610.84
2023-07-21T07:16:04.404Z,99611.28
2023-07-21T07:16:55.170Z,99611.09
2023-07-21T07:17:46.430Z,99619.44
2023-07-21T07:18:37.243Z,99618.84
2023-07-21T07:19:28.649Z,99622.63
2023-07-21T07:20:19.407Z,99620.44
2023-07-21T07:21:10.274Z,99632.78
2023-07-21T07:22:02.659Z,99625.19
2023-07-21T07:22:53.870Z,99630.75
2023-07-21T07:23:44.550Z,99635.63
2023-07-21T07:24:36.131Z,99636.50
2023-07-21T07:25:28.107Z,99638.59
2023-07-21T07:26:19.263Z,99643.94
2023-07-21T07:27:10.882Z,99637.56
2023-07-21T07:28:01.783Z,99644.97
2023-07-21T07:28:52.457Z,99643.03
2023-07-21T07:29:43.259Z,99637.66
2023-07-21T07:30:37.051Z,99639.59
2023-07-21T07:31:28.210Z,99635.72
2023-07-21T07:32:19.228Z,99623.00
2023-07-21T07:33:10.088Z,99620.47
2023-07-21T07:34:00.903Z,99622.28
2023-07-21T07:34:56.526Z,99633.09
2023-07-21T07:35:53.641Z,99638.25
2023-07-21T07:36:44.745Z,99640.13
2023-07-21T07:37:35.750Z,99640.78
2023-07-21T07:38:28.440Z,99640.13
2023-07-21T07:39:19.785Z,99635.66
2023-07-21T07:40:11.497Z,99634.66
2023-07-21T07:41:04.871Z,99633.09
2023-07-21T07:41:55.898Z,99628.47
2023-07-21T07:42:47.683Z,99621.84
2023-07-21T07:43:38.342Z,99620.78
2023-07-21T07:44:29.184Z,99614.91
2023-07-21T07:45:19.974Z,99610.59
2023-07-21T07:46:10.908Z,99621.44
2023-07-21T07:47:01.944Z,99613.50
2023-07-21T07:47:54.175Z,99614.09
2023-07-21T07:48:49.253Z,99611.41
2023-07-21T07:49:40.339Z,99615.66
2023-07-21T07:50:31.175Z,99608.63
2023-07-21T07:51:21.931Z,99613.13
2023-07-21T07:52:13.016Z,99607.13
2023-07-21T07:53:03.886Z,99608.19
2023-07-21T07:53:54.685Z,99609.88
2023-07-21T07:54:48.352Z,99613.56
2023-07-21T07:55:39.514Z,99613.38
2023-07-21T07:56:30.555Z,99617.31
2023-07-21T07:57:21.385Z,99612.09
2023-07-21T07:58:12.617Z,99610.16
2023-07-21T07:59:03.682Z,99612.47
2023-07-21T07:59:55.172Z,99611.47
2023-07-21T08:00:46.821Z,99605.56
2023-07-21T08:01:37.547Z,99600.94
2023-07-21T08:02:28.542Z,99612.97
2023-07-21T08:03:19.435Z,99614.44
2023-07-21T08:04:11.322Z,99607.53
2023-07-21T08:05:02.447Z,99610.50
2023-07-21T08:05:53.245Z,99612.63
2023-07-21T08:06:44.361Z,99616.00
2023-07-21T08:07:35.399Z,99616.06
2023-07-21T08:08:27.335Z,99620.84
2023-07-21T08:09:18.208Z,99620.66
2023-07-21T08:10:09.836Z,99619.41
2023-07-21T08:11:02.927Z,99615.81
2023-07-21T08:11:53.649Z,99616.22
2023-07-21T08:12:44.577Z,99622.25
2023-07-21T08:13:36.187Z,99613.56
2023-07-21T08:14:27.540Z,99616.91
2023-07-21T08:15:18.452Z,99618.31
2023-07-21T08:16:11.166Z,99621.22
2023-07-21T08:17:03.763Z,99619.19
2023-07-21T08:17:54.979Z,99615.66
2023-07-21T08:18:46.103Z,99620.59
2023-07-21T08:19:36.935Z,99623.25
2023-07-21T08:20:27.812Z,99617.72
2023-07-21T08:21:20.035Z,99613.50
2023-07-21T08:22:11.449Z,99611.22
2023-07-21T08:23:04.835Z,99605.28
2023-07-21T08:24:00.002Z,99605.63
2023-07-21T08:24:51.100Z,99602.97
2023-07-21T08:25:42.603Z,99599.50
2023-07-21T08:26:33.629Z,99604.28
2023-07-21T08:27:27.012Z,99609.78
2023-07-21T08:28:17.586Z,99608.88
2023-07-21T08:29:10.284Z,99617.84
2023-07-21T08:30:01.506Z,99622.38
2023-07-21T08:30:58.746Z,99620.81
2023-07-21T08:31:50.684Z,99622.84
2023-07-21T08:32:42.898Z,99626.53
2023-07-21T08:33:33.997Z,99628.69
2023-07-21T08:34:25.133Z,99631.41
2023-07-21T08:35:16.178Z,99635.47
2023-07-21T08:36:07.156Z,99633.44
2023-07-21T08:36:57.792Z,99637.59
2023-07-21T08:37:48.756Z,99637.38
2023-07-21T08:38:39.726Z,99639.47
2023-07-21T08:39:31.480Z,99643.34
2023-07-21T08:40:24.057Z,99644.09
2023-07-21T08:41:19.004Z,99652.38
2023-07-21T08:42:13.327Z,99652.34
2023-07-21T08:43:04.613Z,99652.56
2023-07-21T08:43:59.806Z,99659.94
2023-07-21T08:44:51.803Z,99649.31
2023-07-21T08:45:45.145Z,99654.25
2023-07-21T08:46:36.005Z,99656.91
2023-07-21T08:47:27.000Z,99663.38
2023-07-21T08:48:18.989Z,99654.59
2023-07-21T08:49:11.431Z,99652.16
2023-07-21T08:50:05.209Z,99647.47
2023-07-21T08:50:57.131Z,99654.75
2023-07-21T08:51:47.953Z,99653.75
2023-07-21T08:52:38.844Z,99655.41
2023-07-21T08:53:29.669Z,99653.94
2023-07-21T08:54:20.553Z,99651.34
2023-07-21T08:55:11.212Z,99654.19
2023-07-21T08:56:04.256Z,99648.38
2023-07-21T08:56:54.682Z,99647.88
2023-07-21T08:57:45.397Z,99652.34
2023-07-21T08:58:37.033Z,99653.56
2023-07-21T08:59:27.754Z,99654.56
2023-07-21T09:00:22.269Z,99648.44
2023-07-21T09:01:13.070Z,99648.63
2023-07-21T09:02:04.194Z,99655.81
2023-07-21T09:03:02.737Z,99661.16
2023-07-21T09:03:53.640Z,99658.06
2023-07-21T09:04:45.545Z,99659.41
2023-07-21T09:05:36.510Z,99656.53
2023-07-21T09:06:27.428Z,99670.72
2023-07-21T09:07:18.588Z,99660.47
2023-07-21T09:08:19.933Z,99671.28
2023-07-21T09:09:18.535Z,99677.00
2023-07-21T09:10:10.411Z,99670.38
2023-07-21T09:11:02.553Z,99669.09
2023-07-21T09:12:12.782Z,99669.94
2023-07-21T09:13:04.398Z,99663.44
2023-07-21T09:13:58.175Z,99666.28
2023-07-21T09:14:49.036Z,99660.75
2023-07-21T09:15:39.867Z,99659.28
2023-07-21T09:16:34.311Z,99665.59
2023-07-21T09:17:25.469Z,99656.13
2023-07-21T09:18:16.199Z,99663.56
2023-07-21T09:19:07.988Z,99665.41
2023-07-21T09:19:58.766Z,99663.56
2023-07-21T09:20:50.761Z,99665.66
2023-07-21T09:21:41.294Z,99661.78
2023-07-21T09:22:32.028Z,99665.25
2023-07-21T09:23:24.146Z,99662.75
2023-07-21T09:24:14.946Z,99665.25
2023-07-21T09:25:06.066Z,99664.59
2023-07-21T09:25:59.174Z,99661.69
2023-07-21T09:26:50.188Z,99655.78
2023-07-21T09:27:53.008Z,99664.91
2023-07-21T09:28:44.982Z,99661.03
2023-07-21T09:29:35.670Z,99661.63
2023-07-21T09:30:26.753Z,99664.31
2023-07-21T09:31:17.715Z,99659.59
2023-07-21T09:32:16.618Z,99660.19
2023-07-21T09:33:07.487Z,99664.75
2023-07-21T09:34:06.885Z,99660.41
2023-07-21T09:35:02.569Z,99664.53
2023-07-21T09:36:17.118Z,99667.81
2023-07-21T09:37:08.964Z,99673.97
2023-07-21T09:38:00.489Z,99666.84
2023-07-21T09:38:51.906Z,99664.75
2023-07-21T09:39:44.750Z,99671.47
2023-07-21T09:40:43.179Z,99669.69
2023-07-21T09:41:35.877Z,99671.53
2023-07-21T09:42:28.317Z,99666.78
2023-07-21T09:43:19.369Z,99673.75
2023-07-21T09:44:11.589Z,99666.59
2023-07-21T09:45:02.526Z,99670.31
2023-07-21T09:45:55.809Z,99674.88
2023-07-21T09:46:47.235Z,99673.25
2023-07-21T09:47:45.070Z,99671.53
2023-07-21T09:48:38.073Z,99667.66
2023-07-21T09:49:28.989Z,99671.31
2023-07-21T09:50:19.775Z,99672.16
2023-07-21T09:51:11.686Z,99675.56
2023-07-21T09:52:03.387Z,99680.72
2023-07-21T09:52:56.290Z,99681.88
2023-07-21T09:53:50.288Z,99678.00
2023-07-21T09:54:44.446Z,99676.72
2023-07-21T09:55:42.010Z,99679.22
2023-07-21T09:56:38.099Z,99670.41
2023-07-21T09:57:33.849Z,99666.84
2023-07-21T09:58:27.440Z,99650.69
2023-07-21T09:59:19.477Z,99646.50
2023-07-21T10:00:15.781Z,99643.72
2023-07-21T10:01:07.219Z,99639.22
2023-07-21T10:01:58.435Z,99638.63
2023-07-21T10:02:54.123Z,99636.41
2023-07-21T10:03:46.209Z,99638.44
2023-07-21T10:04:37.380Z,99644.19
2023-07-21T10:05:27.895Z,99642.72
2023-07-21T10:06:19.484Z,99650.56
2023-07-21T10:07:13.370Z,99647.78
2023-07-21T10:08:05.006Z,99653.38
2023-07-21T10:08:57.690Z,99650.84
2023-07-21T10:09:50.461Z,99653.38
2023-07-21T10:10:41.063Z,99656.50
2023-07-21T10:11:32.203Z,99655.69
2023-07-21T10:12:23.221Z,99658.88
2023-07-21T10:13:14.155Z,99648.56
2023-07-21T10:14:04.893Z,99650.41
2023-07-21T10:14:55.744Z,99647.47
2023-07-21T10:15:48.421Z,99647.72
2023-07-21T10:16:39.539Z,99648.59
2023-07-21T10:17:43.968Z,99649.03
2023-07-21T10:18:35.120Z,99640.44
2023-07-21T10:19:30.120Z,99643.69
2023-07-21T10:20:20.842Z,99634.94
2023-07-21T10:21:12.195Z,99633.69
2023-07-21T10:22:03.024Z,99638.50
2023-07-21T10:22:57.499Z,99636.25
2023-07-21T10:23:52.597Z,99643.63
2023-07-21T10:24:46.414Z,99641.53
2023-07-21T10:25:56.130Z,99641.50
2023-07-21T10:26:47.490Z,99638.25
2023-07-21T10:27:38.017Z,99636.34
2023-07-21T10:28:44.868Z,99637.00
2023-07-21T10:29:38.396Z,99636.66
2023-07-21T10:30:29.333Z,99642.00
2023-07-21T10:31:23.966Z,99637.06